createdAt,value
2023-05-18T00:00:43.214Z,539.00
2023-05-18T00:01:43.245Z,544.00
2023-05-18T00:02:43.342Z,542.00
2023-05-18T00:03:43.422Z,541.00
2023-05-18T00:04:43.411Z,539.00
2023-05-18T00:05:43.387Z,538.00
2023-05-18T00:06:43.320Z,542.00
2023-05-18T00:07:44.755Z,543.00
2023-05-18T00:08:43.354Z,544.00
2023-05-18T00:09:43.381Z,546.00
2023-05-18T00:10:43.391Z,547.00
2023-05-18T00:11:43.405Z,545.00
2023-05-18T00:12:43.438Z,541.00
2023-05-18T00:13:43.442Z,543.00
2023-05-18T00:14:43.476Z,544.00
2023-05-18T00:15:43.474Z,543.00
2023-05-18T00:16:43.501Z,544.00
2023-05-18T00:17:43.527Z,546.00
2023-05-18T00:18:43.546Z,547.00
2023-05-18T00:19:43.541Z,546.00
2023-05-18T00:20:43.562Z,544.00
2023-05-18T00:21:43.557Z,539.00
2023-05-18T00:22:43.560Z,540.00
2023-05-18T00:23:43.587Z,537.00
2023-05-18T00:24:43.598Z,536.00
2023-05-18T00:25:43.624Z,535.00
2023-05-18T00:26:43.633Z,535.00
2023-05-18T00:27:43.652Z,532.00
2023-05-18T00:28:43.681Z,533.00
2023-05-18T00:29:43.722Z,532.00
2023-05-18T00:30:43.722Z,531.00
2023-05-18T00:31:43.756Z,531.00
2023-05-18T00:32:43.778Z,531.00
2023-05-18T00:33:43.781Z,532.00
2023-05-18T00:34:43.800Z,535.00
2023-05-18T00:35:43.825Z,535.00
2023-05-18T00:36:43.843Z,531.00
2023-05-18T00:37:43.853Z,530.00
2023-05-18T00:38:43.883Z,525.00
2023-05-18T00:39:43.908Z,521.00
2023-05-18T00:40:43.940Z,523.00
2023-05-18T00:41:43.947Z,524.00
2023-05-18T00:42:43.981Z,524.00
2023-05-18T00:43:43.976Z,519.00
2023-05-18T00:44:44.005Z,520.00
2023-05-18T00:45:44.064Z,521.00
2023-05-18T00:46:44.046Z,519.00
2023-05-18T00:47:44.074Z,518.00
2023-05-18T00:48:44.098Z,519.00
2023-05-18T00:49:44.100Z,522.00
2023-05-18T00:50:44.122Z,524.00
2023-05-18T00:51:44.133Z,524.00
2023-05-18T00:52:44.164Z,521.00
2023-05-18T00:53:44.384Z,519.00
2023-05-18T00:54:44.201Z,524.00
2023-05-18T00:55:44.204Z,522.00
2023-05-18T00:56:44.226Z,523.00
2023-05-18T00:57:44.247Z,521.00
2023-05-18T00:58:44.266Z,522.00
2023-05-18T00:59:44.293Z,521.00
2023-05-18T01:00:44.349Z,522.00
2023-05-18T01:01:44.372Z,522.00
2023-05-18T01:02:44.407Z,521.00
2023-05-18T01:03:44.372Z,521.00
2023-05-18T01:04:44.399Z,522.00
2023-05-18T01:05:44.410Z,519.00
2023-05-18T01:06:44.435Z,518.00
2023-05-18T01:07:44.487Z,515.00
2023-05-18T01:08:44.480Z,514.00
2023-05-18T01:09:44.508Z,513.00
2023-05-18T01:10:44.523Z,511.00
2023-05-18T01:11:44.564Z,511.00
2023-05-18T01:12:44.587Z,509.00
2023-05-18T01:13:44.599Z,508.00
2023-05-18T01:14:44.621Z,507.00
2023-05-18T01:15:44.642Z,503.00
2023-05-18T01:16:44.684Z,503.00
2023-05-18T01:17:44.707Z,502.00
2023-05-18T01:18:44.791Z,506.00
2023-05-18T01:19:44.727Z,509.00
2023-05-18T01:20:44.755Z,508.00
2023-05-18T01:21:44.770Z,505.00
2023-05-18T01:22:44.800Z,509.00
2023-05-18T01:23:44.851Z,509.00
2023-05-18T01:24:44.888Z,508.00
2023-05-18T01:25:44.860Z,509.00
2023-05-18T01:26:44.890Z,508.00
2023-05-18T01:27:44.897Z,508.00
2023-05-18T01:28:44.920Z,507.00
2023-05-18T01:29:45.019Z,506.00
2023-05-18T01:30:45.023Z,505.00
2023-05-18T01:31:45.000Z,503.00
2023-05-18T01:32:45.060Z,504.00
2023-05-18T01:33:45.071Z,505.00
2023-05-18T01:34:45.061Z,505.00
2023-05-18T01:35:45.081Z,503.00
2023-05-18T01:36:45.059Z,502.00
2023-05-18T01:37:45.091Z,500.00
2023-05-18T01:38:45.061Z,499.00
2023-05-18T01:39:45.090Z,497.00
2023-05-18T01:40:45.069Z,498.00
2023-05-18T01:41:45.083Z,500.00
2023-05-18T01:42:45.085Z,502.00
2023-05-18T01:43:45.099Z,503.00
2023-05-18T01:44:45.105Z,503.00
2023-05-18T01:45:45.105Z,503.00
2023-05-18T01:46:45.265Z,502.00
2023-05-18T01:47:45.198Z,501.00
2023-05-18T01:48:45.104Z,499.00
2023-05-18T01:49:45.101Z,500.00
2023-05-18T01:50:45.098Z,499.00
2023-05-18T01:51:45.105Z,498.00
2023-05-18T01:52:45.101Z,499.00
2023-05-18T01:53:45.112Z,497.00
2023-05-18T01:54:45.132Z,495.00
2023-05-18T01:55:45.129Z,494.00
2023-05-18T01:56:45.129Z,493.00
2023-05-18T01:57:45.151Z,495.00
2023-05-18T01:58:45.129Z,494.00
2023-05-18T01:59:45.145Z,494.00
2023-05-18T02:00:45.146Z,494.00
2023-05-18T02:01:45.215Z,494.00
2023-05-18T02:02:45.260Z,493.00
2023-05-18T02:03:45.285Z,491.00
2023-05-18T02:04:45.157Z,491.00
2023-05-18T02:05:45.163Z,488.00
2023-05-18T02:06:45.150Z,485.00
2023-05-18T02:07:45.163Z,482.00
2023-05-18T02:08:45.163Z,482.00
2023-05-18T02:09:45.168Z,483.00
2023-05-18T02:10:45.164Z,481.00
2023-05-18T02:11:45.165Z,486.00
2023-05-18T02:12:45.170Z,485.00
2023-05-18T02:13:45.189Z,483.00
2023-05-18T02:14:45.228Z,483.00
2023-05-18T02:15:45.180Z,484.00
2023-05-18T02:16:45.248Z,482.00
2023-05-18T02:17:45.270Z,483.00
2023-05-18T02:18:45.214Z,483.00
2023-05-18T02:19:45.211Z,483.00
2023-05-18T02:20:45.238Z,482.00
2023-05-18T02:21:45.232Z,484.00
2023-05-18T02:22:45.230Z,486.00
2023-05-18T02:23:45.253Z,486.00
2023-05-18T02:24:45.251Z,485.00
2023-05-18T02:25:45.254Z,486.00
2023-05-18T02:26:45.255Z,482.00
2023-05-18T02:27:45.263Z,482.00
2023-05-18T02:28:45.275Z,482.00
2023-05-18T02:29:45.294Z,483.00
2023-05-18T02:30:45.282Z,482.00
2023-05-18T02:31:45.292Z,479.00
2023-05-18T02:32:45.330Z,479.00
2023-05-18T02:33:45.299Z,478.00
2023-05-18T02:34:45.296Z,478.00
2023-05-18T02:35:45.308Z,478.00
2023-05-18T02:36:45.302Z,478.00
2023-05-18T02:37:45.305Z,481.00
2023-05-18T02:38:45.316Z,479.00
2023-05-18T02:39:45.325Z,473.00
2023-05-18T02:40:45.324Z,475.00
2023-05-18T02:41:45.333Z,477.00
2023-05-18T02:42:45.374Z,477.00
2023-05-18T02:43:45.393Z,479.00
2023-05-18T02:44:45.415Z,480.00
2023-05-18T02:45:45.461Z,482.00
2023-05-18T02:46:45.479Z,480.00
2023-05-18T02:47:45.512Z,481.00
2023-05-18T02:48:45.521Z,481.00
2023-05-18T02:49:45.555Z,478.00
2023-05-18T02:50:46.176Z,477.00
2023-05-18T02:51:45.610Z,476.00
2023-05-18T02:52:45.602Z,477.00
2023-05-18T02:53:45.607Z,478.00
2023-05-18T02:54:45.698Z,479.00
2023-05-18T02:55:45.629Z,477.00
2023-05-18T02:56:45.623Z,476.00
2023-05-18T02:57:45.642Z,479.00
2023-05-18T02:58:45.663Z,479.00
2023-05-18T02:59:45.659Z,478.00
2023-05-18T03:00:45.641Z,475.00
2023-05-18T03:01:45.773Z,476.00
2023-05-18T03:02:45.739Z,477.00
2023-05-18T03:03:45.716Z,476.00
2023-05-18T03:04:46.975Z,476.00
2023-05-18T03:05:45.684Z,472.00
2023-05-18T03:06:45.727Z,470.00
2023-05-18T03:07:45.732Z,465.00
2023-05-18T03:08:45.751Z,467.00
2023-05-18T03:09:45.813Z,467.00
2023-05-18T03:10:45.810Z,464.00
2023-05-18T03:11:45.849Z,463.00
2023-05-18T03:12:45.862Z,461.00
2023-05-18T03:13:45.892Z,463.00
2023-05-18T03:14:45.925Z,465.00
2023-05-18T03:15:45.958Z,463.00
2023-05-18T03:16:46.022Z,466.00
2023-05-18T03:17:46.044Z,468.00
2023-05-18T03:18:46.143Z,469.00
2023-05-18T03:19:46.070Z,470.00
2023-05-18T03:20:46.102Z,470.00
2023-05-18T03:21:46.135Z,470.00
2023-05-18T03:22:46.157Z,471.00
2023-05-18T03:23:46.188Z,469.00
2023-05-18T03:24:46.220Z,467.00
2023-05-18T03:25:46.254Z,465.00
2023-05-18T03:26:46.275Z,465.00
2023-05-18T03:27:46.290Z,467.00
2023-05-18T03:28:46.327Z,468.00
2023-05-18T03:29:46.365Z,468.00
2023-05-18T03:30:46.406Z,466.00
2023-05-18T03:31:46.436Z,467.00
2023-05-18T03:32:46.484Z,468.00
2023-05-18T03:33:46.464Z,467.00
2023-05-18T03:34:46.476Z,466.00
2023-05-18T03:35:48.384Z,464.00
2023-05-18T03:36:46.476Z,462.00
2023-05-18T03:37:46.482Z,464.00
2023-05-18T03:38:46.488Z,464.00
2023-05-18T03:39:46.569Z,463.00
2023-05-18T03:40:46.514Z,463.00
2023-05-18T03:41:46.505Z,462.00
2023-05-18T03:42:46.517Z,463.00
2023-05-18T03:43:46.518Z,461.00
2023-05-18T03:44:46.531Z,460.00
2023-05-18T03:45:46.549Z,458.00
2023-05-18T03:46:46.605Z,459.00
2023-05-18T03:47:46.635Z,461.00
2023-05-18T03:48:46.549Z,461.00
2023-05-18T03:49:46.571Z,459.00
2023-05-18T03:50:46.577Z,458.00
2023-05-18T03:51:46.573Z,459.00
2023-05-18T03:52:46.577Z,461.00
2023-05-18T03:53:46.576Z,458.00
2023-05-18T03:54:46.612Z,456.00
2023-05-18T03:55:46.658Z,455.00
2023-05-18T03:56:46.602Z,457.00
2023-05-18T03:57:46.612Z,456.00
2023-05-18T03:58:46.614Z,454.00
2023-05-18T03:59:46.626Z,453.00
2023-05-18T04:00:46.663Z,455.00
2023-05-18T04:01:46.692Z,455.00
2023-05-18T04:02:46.720Z,454.00
2023-05-18T04:03:46.727Z,454.00
2023-05-18T04:04:46.658Z,454.00
2023-05-18T04:05:46.669Z,453.00
2023-05-18T04:06:46.657Z,452.00
2023-05-18T04:07:46.779Z,452.00
2023-05-18T04:08:46.668Z,451.00
2023-05-18T04:09:46.685Z,454.00
2023-05-18T04:10:46.674Z,455.00
2023-05-18T04:11:46.671Z,455.00
2023-05-18T04:12:46.675Z,454.00
2023-05-18T04:13:46.679Z,456.00
2023-05-18T04:14:46.704Z,456.00
2023-05-18T04:15:46.686Z,454.00
2023-05-18T04:16:46.880Z,451.00
2023-05-18T04:17:46.737Z,450.00
2023-05-18T04:18:46.894Z,451.00
2023-05-18T04:19:46.711Z,453.00
2023-05-18T04:20:46.726Z,454.00
2023-05-18T04:21:46.755Z,453.00
2023-05-18T04:22:46.953Z,452.00
2023-05-18T04:23:46.752Z,450.00
2023-05-18T04:24:46.754Z,450.00
2023-05-18T04:25:46.743Z,450.00
2023-05-18T04:26:46.762Z,448.00
2023-05-18T04:27:47.851Z,447.00
2023-05-18T04:28:46.760Z,449.00
2023-05-18T04:29:46.767Z,446.00
2023-05-18T04:30:46.767Z,449.00
2023-05-18T04:31:46.815Z,449.00
2023-05-18T04:32:46.808Z,450.00
2023-05-18T04:33:46.814Z,449.00
2023-05-18T04:34:46.832Z,449.00
2023-05-18T04:35:46.816Z,451.00
2023-05-18T04:36:46.880Z,450.00
2023-05-18T04:37:46.841Z,451.00
2023-05-18T04:38:46.851Z,450.00
2023-05-18T04:39:46.889Z,452.00
2023-05-18T04:40:46.881Z,452.00
2023-05-18T04:41:46.886Z,450.00
2023-05-18T04:42:46.884Z,447.00
2023-05-18T04:43:46.888Z,446.00
2023-05-18T04:44:46.904Z,441.00
2023-05-18T04:45:46.957Z,442.00
2023-05-18T04:46:46.928Z,442.00
2023-05-18T04:47:47.193Z,446.00
2023-05-18T04:48:46.941Z,449.00
2023-05-18T04:49:46.941Z,449.00
2023-05-18T04:50:46.981Z,449.00
2023-05-18T04:51:46.973Z,446.00
2023-05-18T04:52:46.971Z,446.00
2023-05-18T04:53:46.982Z,443.00
2023-05-18T04:54:47.013Z,442.00
2023-05-18T04:55:46.991Z,443.00
2023-05-18T04:56:47.005Z,444.00
2023-05-18T04:57:47.023Z,445.00
2023-05-18T04:58:47.063Z,449.00
2023-05-18T04:59:47.053Z,446.00
2023-05-18T05:00:47.090Z,444.00
2023-05-18T05:01:47.245Z,447.00
2023-05-18T05:02:47.184Z,446.00
2023-05-18T05:03:47.235Z,444.00
2023-05-18T05:04:47.152Z,445.00
2023-05-18T05:05:47.155Z,445.00
2023-05-18T05:06:47.168Z,445.00
2023-05-18T05:07:47.210Z,440.00
2023-05-18T05:08:47.203Z,441.00
2023-05-18T05:09:47.205Z,440.00
2023-05-18T05:10:47.208Z,441.00
2023-05-18T05:11:47.231Z,442.00
2023-05-18T05:12:49.324Z,443.00
2023-05-18T05:13:47.240Z,442.00
2023-05-18T05:14:47.306Z,442.00
2023-05-18T05:15:47.317Z,441.00
2023-05-18T05:16:47.298Z,442.00
2023-05-18T05:17:47.385Z,441.00
2023-05-18T05:18:47.543Z,439.00
2023-05-18T05:19:47.378Z,439.00
2023-05-18T05:20:47.410Z,436.00
2023-05-18T05:21:47.429Z,437.00
2023-05-18T05:22:47.628Z,439.00
2023-05-18T05:23:47.487Z,438.00
2023-05-18T05:24:47.505Z,438.00
2023-05-18T05:25:47.532Z,438.00
2023-05-18T05:26:47.570Z,437.00
2023-05-18T05:27:47.606Z,439.00
2023-05-18T05:28:47.627Z,438.00
2023-05-18T05:29:47.659Z,441.00
2023-05-18T05:30:47.687Z,437.00
2023-05-18T05:31:47.757Z,437.00
2023-05-18T05:32:47.776Z,438.00
2023-05-18T05:33:47.773Z,437.00
2023-05-18T05:34:47.817Z,434.00
2023-05-18T05:35:47.827Z,435.00
2023-05-18T05:36:47.872Z,431.00
2023-05-18T05:37:47.896Z,429.00
2023-05-18T05:38:47.919Z,428.00
2023-05-18T05:39:47.956Z,428.00
2023-05-18T05:40:47.974Z,432.00
2023-05-18T05:41:48.000Z,429.00
2023-05-18T05:42:48.032Z,430.00
2023-05-18T05:43:48.058Z,431.00
2023-05-18T05:44:48.092Z,431.00
2023-05-18T05:45:48.137Z,431.00
2023-05-18T05:46:48.264Z,428.00
2023-05-18T05:47:48.211Z,427.00
2023-05-18T05:48:48.196Z,426.00
2023-05-18T05:49:48.279Z,426.00
2023-05-18T05:50:48.266Z,426.00
2023-05-18T05:51:48.268Z,424.00
2023-05-18T05:52:48.299Z,425.00
2023-05-18T05:53:48.337Z,424.00
2023-05-18T05:54:48.384Z,425.00
2023-05-18T05:55:48.404Z,425.00
2023-05-18T05:56:48.410Z,425.00
2023-05-18T05:57:48.469Z,426.00
2023-05-18T05:58:48.473Z,425.00
2023-05-18T05:59:48.485Z,426.00
2023-05-18T06:00:48.519Z,424.00
2023-05-18T06:01:48.648Z,423.00
2023-05-18T06:02:48.707Z,423.00
2023-05-18T06:03:48.587Z,423.00
2023-05-18T06:04:48.751Z,422.00
2023-05-18T06:05:48.633Z,421.00
2023-05-18T06:06:48.632Z,424.00
2023-05-18T06:07:48.653Z,426.00
2023-05-18T06:08:48.701Z,425.00
2023-05-18T06:09:48.709Z,422.00
2023-05-18T06:10:48.748Z,421.00
2023-05-18T06:11:48.771Z,419.00
2023-05-18T06:12:48.783Z,419.00
2023-05-18T06:13:48.825Z,419.00
2023-05-18T06:14:48.845Z,420.00
2023-05-18T06:15:48.879Z,418.00
2023-05-18T06:16:48.909Z,419.00
2023-05-18T06:17:48.945Z,418.00
2023-05-18T06:18:48.965Z,417.00
2023-05-18T06:19:48.959Z,417.00
2023-05-18T06:20:48.988Z,417.00
2023-05-18T06:21:48.996Z,420.00
2023-05-18T06:22:49.027Z,422.00
2023-05-18T06:23:49.047Z,420.00
2023-05-18T06:24:49.059Z,421.00
2023-05-18T06:25:49.059Z,419.00
2023-05-18T06:26:49.095Z,420.00
2023-05-18T06:27:49.111Z,422.00
2023-05-18T06:28:49.136Z,428.00
2023-05-18T06:29:49.172Z,429.00
2023-05-18T06:30:49.176Z,428.00
2023-05-18T06:31:49.280Z,427.00
2023-05-18T06:32:49.273Z,426.00
2023-05-18T06:33:49.229Z,426.00
2023-05-18T06:34:49.235Z,425.00
2023-05-18T06:35:49.231Z,422.00
2023-05-18T06:36:49.231Z,423.00
2023-05-18T06:37:49.228Z,423.00
2023-05-18T06:38:49.265Z,420.00
2023-05-18T06:39:49.263Z,419.00
2023-05-18T06:40:49.254Z,422.00
2023-05-18T06:41:49.263Z,416.00
2023-05-18T06:42:49.299Z,417.00
2023-05-18T06:43:49.331Z,416.00
2023-05-18T06:44:49.308Z,419.00
2023-05-18T06:45:49.349Z,417.00
2023-05-18T06:46:49.322Z,419.00
2023-05-18T06:47:49.344Z,420.00
2023-05-18T06:48:49.311Z,422.00
2023-05-18T06:49:49.311Z,422.00
2023-05-18T06:50:49.317Z,422.00
2023-05-18T06:51:49.321Z,422.00
2023-05-18T06:52:49.345Z,422.00
2023-05-18T06:53:49.359Z,424.00
2023-05-18T06:54:49.381Z,424.00
2023-05-18T06:55:49.389Z,424.00
2023-05-18T06:56:49.364Z,425.00
2023-05-18T06:57:49.408Z,422.00
2023-05-18T06:58:49.370Z,423.00
2023-05-18T06:59:49.387Z,421.00
2023-05-18T07:00:49.375Z,420.00
2023-05-18T07:01:49.548Z,420.00
2023-05-18T07:02:49.450Z,417.00
2023-05-18T07:03:49.449Z,420.00
2023-05-18T07:04:49.411Z,420.00
2023-05-18T07:05:49.419Z,420.00
2023-05-18T07:06:49.416Z,419.00
2023-05-18T07:07:49.472Z,419.00
2023-05-18T07:08:49.412Z,419.00
2023-05-18T07:09:49.454Z,418.00
2023-05-18T07:10:49.422Z,419.00
2023-05-18T07:11:49.447Z,418.00
2023-05-18T07:12:49.458Z,419.00
2023-05-18T07:13:49.454Z,418.00
2023-05-18T07:14:49.453Z,418.00
2023-05-18T07:15:49.480Z,415.00
2023-05-18T07:16:49.455Z,413.00
2023-05-18T07:17:49.501Z,411.00
2023-05-18T07:18:49.490Z,412.00
2023-05-18T07:19:49.514Z,413.00
2023-05-18T07:20:49.455Z,412.00
2023-05-18T07:21:49.467Z,411.00
2023-05-18T07:22:49.471Z,410.00
2023-05-18T07:23:49.486Z,412.00
2023-05-18T07:24:49.474Z,413.00
2023-05-18T07:25:49.513Z,414.00
2023-05-18T07:26:49.467Z,413.00
2023-05-18T07:27:49.473Z,414.00
2023-05-18T07:28:49.482Z,412.00
2023-05-18T07:29:49.468Z,412.00
2023-05-18T07:30:49.480Z,410.00
2023-05-18T07:31:49.579Z,409.00
2023-05-18T07:32:49.504Z,408.00
2023-05-18T07:33:49.452Z,413.00
2023-05-18T07:34:49.516Z,415.00
2023-05-18T07:35:49.455Z,415.00
2023-05-18T07:36:49.470Z,415.00
2023-05-18T07:37:49.580Z,414.00
2023-05-18T07:38:49.469Z,412.00
2023-05-18T07:39:49.488Z,412.00
2023-05-18T07:40:49.466Z,412.00
2023-05-18T07:41:49.483Z,410.00
2023-05-18T07:42:49.469Z,411.00
2023-05-18T07:43:49.473Z,410.00
2023-05-18T07:44:49.560Z,409.00
2023-05-18T07:45:49.611Z,410.00
2023-05-18T07:46:49.680Z,412.00
2023-05-18T07:47:49.663Z,411.00
2023-05-18T07:48:49.720Z,408.00
2023-05-18T07:49:49.755Z,406.00
2023-05-18T07:50:49.813Z,408.00
2023-05-18T07:51:49.900Z,409.00
2023-05-18T07:52:49.956Z,410.00
2023-05-18T07:53:49.980Z,409.00
2023-05-18T07:54:50.056Z,409.00
2023-05-18T07:55:50.082Z,410.00
2023-05-18T07:56:50.107Z,411.00
2023-05-18T07:57:50.174Z,408.00
2023-05-18T07:58:50.203Z,407.00
2023-05-18T07:59:50.243Z,407.00
2023-05-18T08:00:50.281Z,407.00
2023-05-18T08:01:50.400Z,405.00
2023-05-18T08:02:50.547Z,405.00
2023-05-18T08:03:50.516Z,404.00
2023-05-18T08:04:50.565Z,402.00
2023-05-18T08:05:50.603Z,403.00
2023-05-18T08:06:50.663Z,404.00
2023-05-18T08:07:50.705Z,401.00
2023-05-18T08:08:50.725Z,402.00
2023-05-18T08:09:50.802Z,403.00
2023-05-18T08:10:50.839Z,409.00
2023-05-18T08:11:50.878Z,409.00
2023-05-18T08:12:50.917Z,405.00
2023-05-18T08:13:50.952Z,401.00
2023-05-18T08:14:50.990Z,401.00
2023-05-18T08:15:59.165Z,403.00
2023-05-18T08:16:52.037Z,404.00
2023-05-18T08:17:51.058Z,403.00
2023-05-18T08:18:51.017Z,404.00
2023-05-18T08:19:50.993Z,404.00
2023-05-18T08:20:50.993Z,404.00
2023-05-18T08:21:50.992Z,404.00
2023-05-18T08:22:51.004Z,403.00
2023-05-18T08:23:51.004Z,404.00
2023-05-18T08:24:50.998Z,403.00
2023-05-18T08:25:51.015Z,404.00
2023-05-18T08:26:51.003Z,405.00
2023-05-18T08:27:51.361Z,409.00
2023-05-18T08:28:51.112Z,406.00
2023-05-18T08:29:51.194Z,406.00
2023-05-18T08:30:51.252Z,403.00
2023-05-18T08:31:51.350Z,405.00
2023-05-18T08:32:51.447Z,403.00
2023-05-18T08:33:52.276Z,401.00
2023-05-18T08:34:51.520Z,398.00
2023-05-18T08:35:51.591Z,398.00
2023-05-18T08:36:51.631Z,396.00
2023-05-18T08:37:51.699Z,394.00
2023-05-18T08:38:51.776Z,395.00
2023-05-18T08:39:51.851Z,397.00
2023-05-18T08:40:51.909Z,398.00
2023-05-18T08:41:51.995Z,403.00
2023-05-18T08:42:52.050Z,401.00
2023-05-18T08:43:52.094Z,399.00
2023-05-18T08:44:52.205Z,397.00
2023-05-18T08:45:52.260Z,399.00
2023-05-18T08:46:52.304Z,400.00
2023-05-18T08:47:52.454Z,400.00
2023-05-18T08:48:52.475Z,401.00
2023-05-18T08:49:52.515Z,404.00
2023-05-18T08:50:52.588Z,405.00
2023-05-18T08:51:52.647Z,403.00
2023-05-18T08:52:52.715Z,400.00
2023-05-18T08:53:52.816Z,399.00
2023-05-18T08:54:52.899Z,400.00
2023-05-18T08:55:52.927Z,402.00
2023-05-18T08:56:53.002Z,402.00
2023-05-18T08:57:53.064Z,401.00
2023-05-18T08:58:53.126Z,402.00
2023-05-18T08:59:53.193Z,402.00
2023-05-18T09:00:53.262Z,403.00
2023-05-18T09:01:53.387Z,403.00
2023-05-18T09:02:53.518Z,400.00
2023-05-18T09:03:53.463Z,400.00
2023-05-18T09:04:53.544Z,398.00
2023-05-18T09:05:53.626Z,397.00
2023-05-18T09:06:53.672Z,397.00
2023-05-18T09:07:53.761Z,398.00
2023-05-18T09:08:53.784Z,399.00
2023-05-18T09:09:53.855Z,399.00
2023-05-18T09:10:53.942Z,398.00
2023-05-18T09:11:54.026Z,399.00
2023-05-18T09:12:54.050Z,397.00
2023-05-18T09:13:54.178Z,397.00
2023-05-18T09:14:54.190Z,394.00
2023-05-18T09:15:54.295Z,393.00
2023-05-18T09:16:54.348Z,397.00
2023-05-18T09:17:54.386Z,398.00
2023-05-18T09:18:54.460Z,398.00
2023-05-18T09:19:54.493Z,395.00
2023-05-18T09:20:54.538Z,397.00
2023-05-18T09:21:54.582Z,396.00
2023-05-18T09:22:54.642Z,398.00
2023-05-18T09:23:54.724Z,398.00
2023-05-18T09:24:54.749Z,398.00
2023-05-18T09:25:54.808Z,397.00
2023-05-18T09:26:54.879Z,393.00
2023-05-18T09:27:54.909Z,392.00
2023-05-18T09:28:54.969Z,391.00
2023-05-18T09:29:55.028Z,389.00
2023-05-18T09:30:55.113Z,391.00
2023-05-18T09:31:55.146Z,394.00
2023-05-18T09:32:55.239Z,394.00
2023-05-18T09:33:55.262Z,395.00
2023-05-18T09:34:55.280Z,395.00
2023-05-18T09:35:55.326Z,399.00
2023-05-18T09:36:55.373Z,395.00
2023-05-18T09:37:55.429Z,394.00
2023-05-18T09:38:55.480Z,393.00
2023-05-18T09:39:55.525Z,392.00
2023-05-18T09:40:55.549Z,391.00
2023-05-18T09:41:55.630Z,390.00
2023-05-18T09:42:55.632Z,391.00
2023-05-18T09:43:55.717Z,393.00
2023-05-18T09:44:55.738Z,395.00
2023-05-18T09:45:55.802Z,393.00
2023-05-18T09:46:55.967Z,392.00
2023-05-18T09:47:55.886Z,393.00
2023-05-18T09:48:55.950Z,394.00
2023-05-18T09:49:55.913Z,395.00
2023-05-18T09:50:55.988Z,391.00
2023-05-18T09:51:56.051Z,391.00
2023-05-18T09:52:56.038Z,389.00
2023-05-18T09:53:56.068Z,387.00
2023-05-18T09:54:56.119Z,389.00
2023-05-18T09:55:56.152Z,387.00
2023-05-18T09:57:09.706Z,391.00
2023-05-18T09:57:57.184Z,390.00
2023-05-18T09:58:56.157Z,391.00
2023-05-18T09:59:56.159Z,390.00
2023-05-18T10:00:56.237Z,390.00
2023-05-18T10:01:56.163Z,389.00
2023-05-18T10:02:56.181Z,385.00
2023-05-18T10:03:56.190Z,388.00
2023-05-18T10:04:56.136Z,389.00
2023-05-18T10:05:56.179Z,391.00
2023-05-18T10:06:56.165Z,393.00
2023-05-18T10:07:56.121Z,392.00
2023-05-18T10:08:56.107Z,393.00
2023-05-18T10:09:56.151Z,395.00
2023-05-18T10:10:56.186Z,392.00
2023-05-18T10:11:56.228Z,394.00
2023-05-18T10:12:56.254Z,392.00
2023-05-18T10:13:56.309Z,390.00
2023-05-18T10:14:56.401Z,391.00
2023-05-18T10:15:56.357Z,388.00
2023-05-18T10:17:07.191Z,387.00
2023-05-18T10:17:57.436Z,386.00
2023-05-18T10:18:56.410Z,384.00
2023-05-18T10:19:56.387Z,386.00
2023-05-18T10:20:59.198Z,386.00
2023-05-18T10:21:56.368Z,388.00
2023-05-18T10:22:56.398Z,387.00
2023-05-18T10:23:56.398Z,389.00
2023-05-18T10:24:56.336Z,390.00
2023-05-18T10:25:56.339Z,390.00
2023-05-18T10:26:57.675Z,391.00
2023-05-18T10:27:56.310Z,390.00
2023-05-18T10:28:56.290Z,392.00
2023-05-18T10:29:56.277Z,389.00
2023-05-18T10:30:56.331Z,388.00
2023-05-18T10:31:56.262Z,391.00
2023-05-18T10:32:56.304Z,389.00
2023-05-18T10:33:56.248Z,390.00
2023-05-18T10:34:56.288Z,390.00
2023-05-18T10:35:56.449Z,389.00
2023-05-18T10:36:56.221Z,388.00
2023-05-18T10:37:56.206Z,384.00
2023-05-18T10:38:56.260Z,384.00
2023-05-18T10:39:56.231Z,383.00
2023-05-18T10:40:56.172Z,381.00
2023-05-18T10:41:56.177Z,381.00
2023-05-18T10:42:56.182Z,382.00
2023-05-18T10:43:56.143Z,381.00
2023-05-18T10:44:56.148Z,382.00
2023-05-18T10:45:56.217Z,383.00
2023-05-18T10:46:56.260Z,383.00
2023-05-18T10:47:56.200Z,382.00
2023-05-18T10:48:56.165Z,382.00
2023-05-18T10:49:56.123Z,382.00
2023-05-18T10:50:56.131Z,379.00
2023-05-18T10:51:56.101Z,379.00
2023-05-18T10:52:56.078Z,377.00
2023-05-18T10:53:56.447Z,377.00
2023-05-18T10:54:56.059Z,378.00
2023-05-18T10:55:56.051Z,379.00
2023-05-18T10:56:56.044Z,380.00
2023-05-18T10:57:56.018Z,381.00
2023-05-18T10:58:56.015Z,378.00
2023-05-18T10:59:55.990Z,377.00
2023-05-18T11:00:56.076Z,377.00
2023-05-18T11:01:56.072Z,379.00
2023-05-18T11:02:56.049Z,381.00
2023-05-18T11:03:55.952Z,381.00
2023-05-18T11:04:55.934Z,379.00
2023-05-18T11:05:55.928Z,378.00
2023-05-18T11:06:55.967Z,377.00
2023-05-18T11:07:55.899Z,376.00
2023-05-18T11:08:55.895Z,378.00
2023-05-18T11:09:55.867Z,376.00
2023-05-18T11:10:55.865Z,376.00
2023-05-18T11:11:55.930Z,374.00
2023-05-18T11:12:55.945Z,376.00
2023-05-18T11:13:55.965Z,378.00
2023-05-18T11:14:55.975Z,379.00
2023-05-18T11:15:56.014Z,377.00
2023-05-18T11:16:56.090Z,378.00
2023-05-18T11:17:56.048Z,377.00
2023-05-18T11:18:56.238Z,377.00
2023-05-18T11:19:56.051Z,378.00
2023-05-18T11:20:56.092Z,376.00
2023-05-18T11:21:56.093Z,375.00
2023-05-18T11:22:56.156Z,376.00
2023-05-18T11:23:56.146Z,376.00
2023-05-18T11:24:56.164Z,376.00
2023-05-18T11:25:56.165Z,376.00
2023-05-18T11:26:56.206Z,374.00
2023-05-18T11:27:56.197Z,374.00
2023-05-18T11:28:56.222Z,375.00
2023-05-18T11:30:14.189Z,375.00
2023-05-18T11:30:57.239Z,372.00
2023-05-18T11:31:56.254Z,373.00
2023-05-18T11:32:56.256Z,373.00
2023-05-18T11:33:56.176Z,372.00
2023-05-18T11:34:56.145Z,372.00
2023-05-18T11:35:56.143Z,370.00
2023-05-18T11:36:56.113Z,368.00
2023-05-18T11:37:56.079Z,370.00
2023-05-18T11:38:56.124Z,370.00
2023-05-18T11:40:00.063Z,372.00
2023-05-18T11:40:57.069Z,372.00
2023-05-18T11:41:56.049Z,373.00
2023-05-18T11:42:56.018Z,371.00
2023-05-18T11:43:56.012Z,369.00
2023-05-18T11:44:56.109Z,371.00
2023-05-18T11:45:58.753Z,370.00
2023-05-18T11:46:55.961Z,368.00
2023-05-18T11:47:56.020Z,367.00
2023-05-18T11:48:55.973Z,366.00
2023-05-18T11:49:55.927Z,366.00
2023-05-18T11:50:55.931Z,367.00
2023-05-18T11:51:58.442Z,367.00
2023-05-18T11:52:55.901Z,369.00
2023-05-18T11:53:55.864Z,369.00
2023-05-18T11:54:55.917Z,371.00
2023-05-18T11:55:55.886Z,372.00
2023-05-18T11:56:55.840Z,372.00
2023-05-18T11:57:55.806Z,369.00
2023-05-18T11:58:55.802Z,370.00
2023-05-18T11:59:55.771Z,370.00
2023-05-18T12:00:55.834Z,369.00
2023-05-18T12:01:55.754Z,370.00
2023-05-18T12:02:55.803Z,370.00
2023-05-18T12:03:55.790Z,368.00
2023-05-18T12:04:55.725Z,367.00
2023-05-18T12:05:55.681Z,370.00
2023-05-18T12:06:55.674Z,373.00
2023-05-18T12:07:55.663Z,372.00
2023-05-18T12:08:55.657Z,372.00
2023-05-18T12:09:55.638Z,371.00
2023-05-18T12:10:55.625Z,370.00
2023-05-18T12:11:55.618Z,371.00
2023-05-18T12:12:55.582Z,371.00
2023-05-18T12:13:55.593Z,369.00
2023-05-18T12:14:55.555Z,371.00
2023-05-18T12:15:57.480Z,369.00
2023-05-18T12:16:55.552Z,368.00
2023-05-18T12:17:55.547Z,368.00
2023-05-18T12:18:55.519Z,370.00
2023-05-18T12:19:55.462Z,373.00
2023-05-18T12:20:55.473Z,375.00
2023-05-18T12:21:58.355Z,373.00
2023-05-18T12:22:55.447Z,376.00
2023-05-18T12:23:55.409Z,373.00
2023-05-18T12:24:55.381Z,370.00
2023-05-18T12:25:55.367Z,371.00
2023-05-18T12:26:55.367Z,371.00
2023-05-18T12:27:55.346Z,370.00
2023-05-18T12:28:55.338Z,367.00